Time;durP1;ratioP1;P1;durP2;ratioP2;P2;SDS_P1;SDS_P2;PMS_P1;PMS_P2;Temp;Humidity;BMP_temperature;BMP_pressure;BME280_temperature;BME280_humidity;BME280_pressure;Samples;Min_cycle;Max_cycle;Signal;HPM_P1;HPM_P2
2022/04/17 00:00:04;;;;;;;4.63;2.28;;;7.80;69.80;;;;;;4992123;28;20041;-84
2022/04/17 00:02:30;;;;;;;5.30;2.72;;;7.80;69.80;;;;;;5014213;28;20083;-84
2022/04/17 00:04:55;;;;;;;6.22;2.67;;;7.80;69.80;;;;;;5019571;28;20524;-84
2022/04/17 00:07:21;;;;;;;5.80;2.85;;;7.80;70.00;;;;;;5009573;28;20034;-84
2022/04/17 00:09:46;;;;;;;5.80;2.58;;;7.70;70.10;;;;;;5013378;28;20425;-85
2022/04/17 00:12:12;;;;;;;5.82;2.65;;;7.60;70.10;;;;;;5003519;28;20034;-84
2022/04/17 00:14:37;;;;;;;7.63;2.70;;;7.60;70.50;;;;;;5001956;28;20029;-84
2022/04/17 00:17:03;;;;;;;5.65;2.42;;;7.50;70.60;;;;;;5015077;28;20419;-84
2022/04/17 00:19:29;;;;;;;6.68;2.28;;;7.50;70.80;;;;;;5016043;28;20075;-84
2022/04/17 00:21:55;;;;;;;8.00;2.63;;;7.40;71.10;;;;;;5007638;28;20393;-84
2022/04/17 00:24:20;;;;;;;6.28;2.65;;;7.40;71.20;;;;;;5002660;28;20037;-85
2022/04/17 00:26:45;;;;;;;8.98;3.08;;;7.30;71.30;;;;;;4997141;28;20018;-84
2022/04/17 00:29:11;;;;;;;6.18;2.78;;;7.30;71.70;;;;;;5013945;28;20036;-84
2022/04/17 00:31:37;;;;;;;8.27;3.10;;;7.20;71.70;;;;;;5019608;28;20025;-85
2022/04/17 00:34:02;;;;;;;7.43;2.67;;;7.20;71.70;;;;;;5015872;28;20034;-85
2022/04/17 00:36:28;;;;;;;6.63;3.22;;;7.10;71.90;;;;;;5020036;28;20080;-84
2022/04/17 00:38:54;;;;;;;8.45;2.28;;;7.10;72.40;;;;;;5004729;28;20444;-84
2022/04/17 00:41:19;;;;;;;5.28;2.70;;;7.00;73.10;;;;;;5009811;28;20029;-84
2022/04/17 00:43:47;;;;;;;6.53;2.80;;;6.90;73.50;;;;;;5015703;28;20035;-84
2022/04/17 00:46:12;;;;;;;6.80;3.25;;;6.80;74.00;;;;;;5012148;28;20041;-85
2022/04/17 00:48:38;;;;;;;7.13;2.92;;;6.60;74.40;;;;;;5009233;28;20466;-84
2022/04/17 00:51:06;;;;;;;5.10;2.50;;;6.50;74.80;;;;;;5010209;28;20025;-84
2022/04/17 00:53:31;;;;;;;7.82;3.00;;;6.40;75.30;;;;;;5011006;28;20032;-84
2022/04/17 00:55:57;;;;;;;4.68;2.72;;;6.30;75.60;;;;;;5009099;28;20385;-84
2022/04/17 00:58:25;;;;;;;6.53;3.25;;;6.20;75.90;;;;;;4999416;28;20084;-84
2022/04/17 01:00:50;;;;;;;6.30;2.60;;;6.10;76.50;;;;;;5014149;28;20025;-84
2022/04/17 01:03:17;;;;;;;5.93;2.88;;;6.00;76.80;;;;;;5015831;28;20124;-84
2022/04/17 01:05:43;;;;;;;6.55;2.80;;;5.90;77.30;;;;;;4998277;28;20044;-84
2022/04/17 01:08:10;;;;;;;8.10;3.00;;;5.80;77.50;;;;;;5015485;28;20033;-84
2022/04/17 01:10:35;;;;;;;9.77;4.00;;;5.80;78.10;;;;;;5019397;28;20025;-84
2022/04/17 01:13:03;;;;;;;10.70;4.10;;;5.70;78.80;;;;;;5013782;28;20120;-84
2022/04/17 01:15:29;;;;;;;8.27;3.83;;;5.70;79.50;;;;;;5016019;28;20033;-84
2022/04/17 01:17:55;;;;;;;10.80;4.82;;;5.60;79.40;;;;;;5005713;28;20025;-84
2022/04/17 01:20:22;;;;;;;9.70;3.90;;;5.60;79.40;;;;;;5010685;28;20037;-84
2022/04/17 01:26:55;;;;;;;9.65;4.53;;;5.60;79.70;;;;;;5009435;28;20053;-84
2022/04/17 01:28:23;;;;;;;7.28;3.58;;;5.60;79.80;;;;;;5023174;28;20113;-84
2022/04/17 01:30:56;;;;;;;8.60;4.03;;;5.60;79.90;;;;;;5015911;28;20108;-84
2022/04/17 01:33:23;;;;;;;9.25;4.10;;;5.60;80.00;;;;;;5017315;28;20098;-84
2022/04/17 01:35:48;;;;;;;9.82;4.20;;;5.60;80.10;;;;;;5010797;28;20037;-84
2022/04/17 01:38:14;;;;;;;8.93;4.00;;;5.60;80.20;;;;;;5001160;28;20032;-84
2022/04/17 01:40:40;;;;;;;12.60;4.50;;;5.60;80.40;;;;;;5007557;28;20121;-84
2022/04/17 01:43:09;;;;;;;8.38;3.78;;;5.50;80.70;;;;;;5010427;28;20113;-83
2022/04/17 01:45:35;;;;;;;7.93;4.50;;;5.40;80.80;;;;;;5011966;28;20029;-84
2022/04/17 01:48:01;;;;;;;8.52;4.65;;;5.40;81.00;;;;;;5010822;28;20049;-84
2022/04/17 01:50:27;;;;;;;10.15;4.57;;;5.30;81.20;;;;;;5016888;28;20053;-84
2022/04/17 01:52:53;;;;;;;9.32;4.20;;;5.30;81.60;;;;;;5018108;28;20033;-84
2022/04/17 01:55:19;;;;;;;8.70;4.50;;;5.20;81.80;;;;;;5011720;28;20137;-84
2022/04/17 01:57:45;;;;;;;7.45;4.30;;;5.10;82.20;;;;;;5004719;28;20124;-84
2022/04/17 02:00:11;;;;;;;10.63;4.90;;;5.00;82.40;;;;;;5006826;28;20402;-84
2022/04/17 02:02:36;;;;;;;10.80;4.22;;;5.00;82.70;;;;;;5013624;28;20033;-84
2022/04/17 02:05:02;;;;;;;8.63;4.38;;;4.90;83.30;;;;;;5004458;28;20604;-84
2022/04/17 02:07:28;;;;;;;8.63;4.60;;;4.90;83.80;;;;;;5014473;28;20041;-84
2022/04/17 02:09:53;;;;;;;10.43;4.63;;;4.80;84.10;;;;;;5014818;28;20474;-84
2022/04/17 02:12:19;;;;;;;9.90;4.20;;;4.70;84.70;;;;;;5010627;28;20032;-84
2022/04/17 02:14:45;;;;;;;8.93;4.40;;;4.70;85.30;;;;;;5013796;28;20025;-83
2022/04/17 02:17:11;;;;;;;14.10;5.32;;;4.60;86.10;;;;;;5012294;28;20017;-84
2022/04/17 02:19:36;;;;;;;8.25;4.70;;;4.60;86.70;;;;;;5015109;28;20534;-84
2022/04/17 02:22:02;;;;;;;7.40;4.35;;;4.50;87.00;;;;;;5010560;28;20021;-84
2022/04/17 02:24:27;;;;;;;8.13;4.95;;;4.50;87.70;;;;;;5011460;28;20029;-84
2022/04/17 02:26:53;;;;;;;10.15;5.05;;;4.50;88.40;;;;;;5006454;28;20022;-84
2022/04/17 02:29:18;;;;;;;11.15;5.60;;;4.40;89.00;;;;;;5016744;28;20473;-84
2022/04/17 02:31:44;;;;;;;9.20;4.95;;;4.40;89.70;;;;;;5015450;28;20025;-84
2022/04/17 02:34:09;;;;;;;8.82;4.80;;;4.40;90.20;;;;;;5013802;28;20037;-84
2022/04/17 02:36:35;;;;;;;11.18;5.30;;;4.40;90.60;;;;;;5016928;28;20033;-84
2022/04/17 02:39:00;;;;;;;12.27;5.85;;;4.40;91.10;;;;;;5016779;28;20503;-84
2022/04/17 02:41:26;;;;;;;11.23;5.57;;;4.40;91.30;;;;;;5016202;28;20022;-84
2022/04/17 02:43:52;;;;;;;9.07;5.57;;;4.40;91.80;;;;;;5017827;28;20038;-84
2022/04/17 02:47:42;;;;;;;10.07;5.43;;;4.30;92.10;;;;;;5006306;28;20026;-84
2022/04/17 02:49:03;;;;;;;12.18;6.25;;;4.30;92.50;;;;;;5019968;28;20100;-84
2022/04/17 02:51:29;;;;;;;12.02;5.60;;;4.30;92.90;;;;;;5012320;28;20116;-85
2022/04/17 02:53:54;;;;;;;13.20;5.95;;;4.30;93.20;;;;;;5017153;28;20025;-83
2022/04/17 02:56:20;;;;;;;11.90;5.55;;;4.30;93.40;;;;;;5018431;28;20478;-84
2022/04/17 02:58:45;;;;;;;12.45;5.55;;;4.30;93.60;;;;;;5015736;28;20088;-84
2022/04/17 03:06:41;;;;;;;11.38;5.63;;;4.30;93.80;;;;;;5019765;28;20045;-84
2022/04/17 03:09:06;;;;;;;10.98;5.20;;;4.40;93.90;;;;;;5010438;28;20038;-84
2022/04/17 03:11:32;;;;;;;12.00;5.63;;;4.40;93.90;;;;;;5015971;28;20071;-84
2022/04/17 03:13:57;;;;;;;8.45;4.68;;;4.40;93.90;;;;;;5015480;28;20033;-84
2022/04/17 03:16:23;;;;;;;9.88;6.00;;;4.40;94.10;;;;;;5015874;28;20374;-83
2022/04/17 03:18:49;;;;;;;9.70;4.80;;;4.40;94.40;;;;;;5011996;28;20046;-84
2022/04/17 03:21:14;;;;;;;10.95;6.10;;;4.30;94.60;;;;;;5011879;28;20037;-83
2022/04/17 03:23:40;;;;;;;8.82;5.55;;;4.30;94.70;;;;;;5010593;28;20021;-84
2022/04/17 03:26:05;;;;;;;11.02;5.50;;;4.30;94.80;;;;;;5017581;28;20033;-84
2022/04/17 03:28:31;;;;;;;9.27;5.68;;;4.20;95.10;;;;;;5013976;28;20021;-84
2022/04/17 03:30:56;;;;;;;9.57;5.82;;;4.20;95.40;;;;;;5016551;28;20027;-84
2022/04/17 03:33:22;;;;;;;12.55;5.75;;;4.20;95.60;;;;;;5005168;28;20071;-84
2022/04/17 03:35:48;;;;;;;10.32;6.05;;;4.10;95.90;;;;;;5002850;28;20490;-84
2022/04/17 03:38:13;;;;;;;10.57;5.38;;;4.10;96.00;;;;;;5010753;28;20116;-84
2022/04/17 03:40:39;;;;;;;13.00;6.00;;;4.10;96.10;;;;;;5001489;28;20034;-84
2022/04/17 03:43:04;;;;;;;8.93;5.13;;;4.10;96.10;;;;;;5021718;28;20018;-84
2022/04/17 03:45:30;;;;;;;11.70;5.85;;;4.10;96.20;;;;;;5014209;28;20048;-84
2022/04/17 03:47:56;;;;;;;11.50;5.50;;;4.10;96.30;;;;;;5002319;28;20537;-84
2022/04/17 03:50:21;;;;;;;11.95;5.68;;;4.00;96.50;;;;;;5009222;28;20025;-83
2022/04/17 03:52:48;;;;;;;9.68;5.65;;;4.00;96.60;;;;;;5004250;28;20072;-83
2022/04/17 03:55:14;;;;;;;9.18;5.15;;;4.00;96.80;;;;;;5013621;28;20486;-84
2022/04/17 03:57:40;;;;;;;9.35;5.28;;;4.00;96.90;;;;;;5018468;28;20128;-84
2022/04/17 04:00:08;;;;;;;9.75;5.25;;;3.90;97.00;;;;;;5017019;28;20132;-84
2022/04/17 04:02:33;;;;;;;9.27;4.75;;;3.90;97.10;;;;;;5006679;28;20128;-84
2022/04/17 04:04:59;;;;;;;12.43;5.75;;;3.80;97.30;;;;;;5004176;28;20129;-84
2022/04/17 04:07:25;;;;;;;10.05;5.65;;;3.70;97.50;;;;;;5009032;28;20392;-84
2022/04/17 04:09:51;;;;;;;9.07;5.45;;;3.70;97.60;;;;;;5017053;28;20029;-84
2022/04/17 04:12:17;;;;;;;10.35;6.40;;;3.70;97.90;;;;;;5008259;28;20026;-84
2022/04/17 04:14:43;;;;;;;11.52;5.97;;;3.60;98.10;;;;;;5013753;28;20104;-84
2022/04/17 04:17:09;;;;;;;10.32;5.47;;;3.60;98.20;;;;;;5008736;28;20415;-84
2022/04/17 04:19:35;;;;;;;9.45;4.85;;;3.60;98.30;;;;;;5007598;28;20042;-84
2022/04/17 04:22:00;;;;;;;9.20;5.18;;;3.60;98.40;;;;;;5007712;28;20060;-83
2022/04/17 04:24:26;;;;;;;13.88;6.20;;;3.60;98.60;;;;;;5017629;28;20037;-84
2022/04/17 04:29:50;;;;;;;11.25;6.13;;;3.60;98.80;;;;;;4980742;28;20473;-84
2022/04/17 04:32:19;;;;;;;10.60;6.00;;;3.60;98.90;;;;;;4996994;28;20030;-84
2022/04/17 04:34:45;;;;;;;13.95;5.72;;;3.60;99.00;;;;;;5012620;28;20469;-84
2022/04/17 04:37:10;;;;;;;10.60;6.05;;;3.60;99.10;;;;;;5015654;28;20030;-84
2022/04/17 04:39:35;;;;;;;12.20;6.63;;;3.60;99.10;;;;;;5016095;28;20052;-84
2022/04/17 04:42:01;;;;;;;13.73;5.30;;;3.50;99.20;;;;;;5009951;28;20039;-85
2022/04/17 04:44:27;;;;;;;12.45;5.93;;;3.50;99.30;;;;;;5004074;28;20033;-85
2022/04/17 04:46:52;;;;;;;14.63;6.65;;;3.50;99.50;;;;;;5006645;28;20049;-85
2022/04/17 04:49:30;;;;;;;14.02;6.53;;;3.40;99.70;;;;;;5016001;28;20033;-86
2022/04/17 04:51:57;;;;;;;11.48;6.43;;;3.40;99.90;;;;;;5012578;28;20017;-86
2022/04/17 04:54:22;;;;;;;10.85;6.45;;;3.40;99.90;;;;;;5019724;28;20120;-85
2022/04/17 04:56:48;;;;;;;12.80;6.97;;;3.40;99.90;;;;;;5030138;28;20049;-86
2022/04/17 04:59:13;;;;;;;13.55;7.32;;;3.40;99.90;;;;;;5006430;28;20045;-86
2022/04/17 05:01:38;;;;;;;16.23;7.18;;;3.40;99.90;;;;;;5007643;28;20026;-85
2022/04/17 05:04:04;;;;;;;13.57;6.85;;;3.50;99.90;;;;;;5014908;28;20050;-85
2022/04/17 05:06:30;;;;;;;14.55;7.47;;;3.60;99.90;;;;;;5011037;28;20040;-86
2022/04/17 05:08:55;;;;;;;15.60;6.85;;;3.70;99.90;;;;;;5019343;28;20430;-85
2022/04/17 05:11:21;;;;;;;15.55;7.30;;;3.70;99.90;;;;;;5007247;28;20037;-85
2022/04/17 05:13:47;;;;;;;14.00;7.90;;;3.70;99.90;;;;;;5002311;28;20018;-86
2022/04/17 05:16:13;;;;;;;13.02;6.63;;;3.70;99.90;;;;;;5021224;28;20057;-85
2022/04/17 05:18:39;;;;;;;13.55;7.03;;;3.70;99.90;;;;;;5015863;28;20051;-85
2022/04/17 05:21:06;;;;;;;15.40;8.23;;;3.70;99.90;;;;;;5018557;28;20037;-85
2022/04/17 05:23:31;;;;;;;16.75;7.93;;;3.80;99.90;;;;;;5017828;28;20108;-85
2022/04/17 05:26:01;;;;;;;14.50;7.80;;;3.90;99.90;;;;;;5012503;28;20072;-84
2022/04/17 05:28:28;;;;;;;15.00;8.38;;;3.90;99.90;;;;;;5006559;28;20497;-85
2022/04/17 05:30:54;;;;;;;13.68;7.20;;;3.90;99.90;;;;;;5011782;28;20036;-85
2022/04/17 05:33:21;;;;;;;12.75;7.78;;;3.90;99.90;;;;;;5023660;28;20017;-85
2022/04/17 05:35:47;;;;;;;15.13;8.43;;;3.90;99.90;;;;;;5016854;28;20029;-84
2022/04/17 05:38:13;;;;;;;10.88;6.25;;;4.00;99.90;;;;;;5009381;28;20060;-85
2022/04/17 05:40:41;;;;;;;15.52;7.68;;;4.00;99.90;;;;;;5007813;28;20052;-85
2022/04/17 05:43:07;;;;;;;13.05;6.68;;;4.10;99.90;;;;;;5010758;28;20029;-85
2022/04/17 05:45:33;;;;;;;13.10;7.70;;;4.20;99.90;;;;;;5004912;28;20034;-85
2022/04/17 05:47:59;;;;;;;12.25;7.75;;;4.30;99.90;;;;;;5010453;28;20133;-86
2022/04/17 05:50:25;;;;;;;14.30;7.63;;;4.40;99.90;;;;;;5021329;28;20029;-85
2022/04/17 05:52:51;;;;;;;12.25;6.70;;;4.50;99.90;;;;;;5013828;28;20045;-85
2022/04/17 05:55:17;;;;;;;14.77;6.68;;;4.60;99.90;;;;;;5008674;28;20410;-85
2022/04/17 05:57:42;;;;;;;14.00;6.88;;;4.70;99.90;;;;;;5005045;28;20030;-84
2022/04/17 06:00:09;;;;;;;14.77;7.32;;;4.90;99.90;;;;;;5006179;28;20909;-85
2022/04/17 06:02:35;;;;;;;10.85;7.22;;;5.00;99.90;;;;;;5007471;28;20540;-85
2022/04/17 06:05:03;;;;;;;12.57;7.55;;;5.10;99.90;;;;;;5006185;28;20053;-85
2022/04/17 06:07:29;;;;;;;9.48;5.72;;;5.10;99.90;;;;;;5011485;28;20043;-85
2022/04/17 06:09:55;;;;;;;11.43;6.90;;;5.30;99.90;;;;;;5015265;28;20120;-85
2022/04/17 06:12:20;;;;;;;11.23;6.25;;;5.40;99.90;;;;;;5023806;28;20032;-86
2022/04/17 06:14:46;;;;;;;10.77;6.80;;;5.50;99.90;;;;;;4998785;28;20049;-86
2022/04/17 06:17:11;;;;;;;9.60;6.22;;;5.60;99.90;;;;;;5006557;28;20018;-86
2022/04/17 06:19:37;;;;;;;13.02;6.10;;;5.80;99.90;;;;;;4999567;28;20037;-86
2022/04/17 06:22:03;;;;;;;8.68;5.88;;;6.00;99.90;;;;;;5022847;28;20096;-86
2022/04/17 06:24:29;;;;;;;10.13;5.90;;;6.10;99.60;;;;;;5013364;28;20528;-85
2022/04/17 06:26:55;;;;;;;11.10;5.38;;;6.20;99.40;;;;;;5028312;28;20026;-86
2022/04/17 06:29:20;;;;;;;6.75;3.70;;;6.40;99.20;;;;;;5015179;28;20029;-86
2022/04/17 06:31:46;;;;;;;7.57;3.88;;;6.50;98.70;;;;;;5010848;28;20037;-85
2022/04/17 06:34:12;;;;;;;8.75;3.08;;;6.80;98.20;;;;;;5006941;28;20040;-85
2022/04/17 06:36:39;;;;;;;8.98;3.30;;;7.00;97.70;;;;;;5008530;28;20041;-84
2022/04/17 06:39:05;;;;;;;5.88;3.10;;;7.20;97.40;;;;;;5009222;28;20041;-83
2022/04/17 06:41:30;;;;;;;5.00;2.80;;;7.30;97.00;;;;;;5009702;28;20029;-85
2022/04/17 06:43:56;;;;;;;4.28;2.20;;;7.50;96.60;;;;;;5011099;28;20482;-85
2022/04/17 06:46:21;;;;;;;5.80;2.90;;;7.70;96.00;;;;;;5011353;28;20071;-85
2022/04/17 06:48:47;;;;;;;9.55;3.28;;;7.90;94.90;;;;;;5012516;28;20029;-86
2022/04/17 06:51:13;;;;;;;6.00;2.97;;;8.00;94.50;;;;;;5011795;28;20025;-86
2022/04/17 06:53:38;;;;;;;5.97;3.05;;;8.10;94.20;;;;;;5007333;28;20036;-85
2022/04/17 06:56:04;;;;;;;6.78;3.03;;;8.30;94.10;;;;;;5008050;28;20049;-86
2022/04/17 06:58:30;;;;;;;6.13;2.83;;;8.40;93.60;;;;;;5010788;28;20057;-86
2022/04/17 07:00:55;;;;;;;7.00;3.75;;;8.50;93.40;;;;;;5003631;28;20041;-86
2022/04/17 07:03:21;;;;;;;3.85;2.83;;;8.60;93.10;;;;;;5009464;28;20026;-86
2022/04/17 07:05:46;;;;;;;4.93;2.45;;;8.70;92.90;;;;;;5007944;28;20041;-85
2022/04/17 07:08:12;;;;;;;4.25;2.67;;;8.80;92.60;;;;;;5011000;28;20533;-85
2022/04/17 07:10:39;;;;;;;6.40;2.78;;;8.90;92.20;;;;;;5014895;28;20532;-86
2022/04/17 07:13:06;;;;;;;5.10;2.90;;;9.00;91.60;;;;;;5013694;28;20037;-86
2022/04/17 07:15:32;;;;;;;6.32;2.90;;;9.10;91.50;;;;;;5012253;28;20113;-85
2022/04/17 07:17:58;;;;;;;4.88;2.75;;;9.20;91.10;;;;;;5017964;28;20060;-85
2022/04/17 07:20:26;;;;;;;4.28;2.42;;;9.20;90.90;;;;;;5010844;28;20049;-86
2022/04/17 07:22:52;;;;;;;7.65;2.78;;;9.30;90.90;;;;;;5010639;28;20057;-86
2022/04/17 07:25:18;;;;;;;5.45;2.78;;;9.40;90.60;;;;;;5008420;28;20470;-87
2022/04/17 07:27:49;;;;;;;5.00;2.70;;;9.50;90.40;;;;;;5010657;28;20017;-85
2022/04/17 07:30:16;;;;;;;4.13;2.53;;;9.60;90.00;;;;;;5013234;28;20041;-86
2022/04/17 07:32:44;;;;;;;5.38;2.88;;;9.70;89.50;;;;;;5005536;28;20045;-85
2022/04/17 07:35:11;;;;;;;6.70;2.35;;;9.80;88.60;;;;;;5008301;28;20025;-85
2022/04/17 07:37:37;;;;;;;6.53;2.60;;;9.80;87.80;;;;;;5009584;28;20026;-86
2022/04/17 07:40:19;;;;;;;6.88;2.83;;;10.00;88.00;;;;;;5013739;28;20033;-86
2022/04/17 07:42:45;;;;;;;5.50;2.88;;;10.10;87.40;;;;;;5011076;28;20032;-86
2022/04/17 07:45:13;;;;;;;5.32;2.03;;;10.10;87.20;;;;;;5006414;28;20662;-86
2022/04/17 07:47:39;;;;;;;4.57;2.50;;;10.20;86.90;;;;;;5007702;28;20041;-86
2022/04/17 07:50:07;;;;;;;6.25;1.95;;;10.30;86.90;;;;;;5004731;28;20025;-87
2022/04/17 07:52:36;;;;;;;3.88;1.85;;;10.40;86.50;;;;;;5009658;28;20025;-86
2022/04/17 07:55:03;;;;;;;5.82;2.40;;;10.50;85.20;;;;;;5011283;28;20029;-86
2022/04/17 07:57:29;;;;;;;4.55;2.03;;;10.60;85.30;;;;;;5010809;28;20026;-86
2022/04/17 07:59:55;;;;;;;3.30;1.70;;;10.60;84.60;;;;;;5011792;28;20508;-85
2022/04/17 08:02:22;;;;;;;4.03;1.85;;;10.80;83.70;;;;;;5011928;28;20017;-86
2022/04/17 08:04:51;;;;;;;5.07;2.42;;;10.90;82.60;;;;;;5008510;28;20539;-85
2022/04/17 08:07:21;;;;;;;4.68;2.30;;;10.90;83.10;;;;;;5007044;28;20025;-86
2022/04/17 08:09:47;;;;;;;4.03;2.47;;;11.10;83.00;;;;;;5006205;28;20076;-86
2022/04/17 08:12:13;;;;;;;7.88;2.13;;;11.10;82.50;;;;;;4997977;28;20026;-84
2022/04/17 08:14:39;;;;;;;3.28;1.70;;;11.30;81.60;;;;;;4997447;28;20034;-86
2022/04/17 08:17:05;;;;;;;3.47;1.90;;;11.40;81.50;;;;;;5001673;28;20029;-85
2022/04/17 08:19:32;;;;;;;3.70;2.00;;;11.40;80.60;;;;;;4997953;28;20106;-86
2022/04/17 08:21:58;;;;;;;4.30;1.92;;;11.50;80.10;;;;;;4999732;28;20041;-85
2022/04/17 08:24:24;;;;;;;3.95;1.70;;;11.60;80.30;;;;;;4999393;28;20036;-86
2022/04/17 08:26:49;;;;;;;3.97;1.63;;;11.80;79.90;;;;;;5002859;28;20025;-85
2022/04/17 08:29:17;;;;;;;3.13;1.98;;;11.90;78.70;;;;;;4997642;28;20500;-86
2022/04/17 08:31:42;;;;;;;1.90;0.98;;;12.00;78.40;;;;;;4993779;28;20042;-85
2022/04/17 08:34:08;;;;;;;3.40;1.98;;;12.00;77.70;;;;;;5022017;28;20508;-86
2022/04/17 08:36:33;;;;;;;2.90;1.77;;;12.10;76.80;;;;;;5000785;28;20071;-86
2022/04/17 08:38:59;;;;;;;3.60;1.40;;;12.20;76.20;;;;;;4997343;28;20048;-86
2022/04/17 08:41:26;;;;;;;3.85;2.13;;;12.20;76.30;;;;;;5002908;28;20022;-86
2022/04/17 08:43:52;;;;;;;4.47;1.50;;;12.30;75.80;;;;;;5000128;28;20053;-86
2022/04/17 08:46:18;;;;;;;2.58;1.65;;;12.40;74.80;;;;;;4996850;28;20146;-87
2022/04/17 08:48:44;;;;;;;4.00;1.60;;;12.60;73.80;;;;;;4995660;28;20040;-87
2022/04/17 08:51:09;;;;;;;2.78;1.30;;;12.60;74.00;;;;;;5002796;28;20149;-86
2022/04/17 08:53:36;;;;;;;3.10;1.38;;;12.70;74.10;;;;;;4999007;28;20033;-86
2022/04/17 08:56:02;;;;;;;3.40;1.40;;;12.90;73.60;;;;;;4995379;28;20029;-87
2022/04/17 08:58:28;;;;;;;2.70;1.40;;;12.90;72.70;;;;;;5015590;28;20041;-86
2022/04/17 09:00:53;;;;;;;3.70;1.30;;;13.00;73.50;;;;;;4998523;28;20064;-87
2022/04/17 09:03:19;;;;;;;3.17;1.30;;;13.10;73.10;;;;;;4997026;28;20359;-86
2022/04/17 09:05:45;;;;;;;3.58;1.52;;;13.20;73.30;;;;;;4994003;28;20053;-86
2022/04/17 09:08:16;;;;;;;3.42;1.08;;;13.30;72.70;;;;;;4998001;28;21557;-86
2022/04/17 09:10:53;;;;;;;2.55;1.02;;;13.40;72.40;;;;;;4998251;28;20029;-86
2022/04/17 09:13:26;;;;;;;3.35;1.30;;;13.40;71.30;;;;;;4998686;28;20037;-88
2022/04/17 09:15:51;;;;;;;;;;;13.50;70.60;;;;;;4998838;28;20045;-86
2022/04/17 09:18:17;;;;;;;2.45;1.15;;;13.50;71.10;;;;;;4997288;28;20259;-86
2022/04/17 09:20:47;;;;;;;2.33;1.10;;;13.60;70.70;;;;;;4995456;28;20042;-86
2022/04/17 09:23:13;;;;;;;7.13;1.13;;;13.60;70.50;;;;;;4997049;28;20025;-87
2022/04/17 09:25:38;;;;;;;4.28;1.30;;;13.70;70.10;;;;;;4996612;28;20056;-87
2022/04/17 09:28:06;;;;;;;2.60;1.00;;;13.80;69.80;;;;;;4994524;28;20034;-86
2022/04/17 09:30:40;;;;;;;3.92;1.30;;;13.90;69.10;;;;;;5021155;28;20026;-86
2022/04/17 09:33:10;;;;;;;4.03;1.30;;;13.90;67.80;;;;;;4994082;28;20105;-86
2022/04/17 09:35:37;;;;;;;2.78;1.10;;;13.90;67.80;;;;;;4995112;28;20030;-85
2022/04/17 09:38:05;;;;;;;2.45;1.17;;;14.00;68.40;;;;;;4995008;28;20568;-87
2022/04/17 09:40:31;;;;;;;4.22;0.98;;;14.10;66.80;;;;;;4995084;28;20041;-86
2022/04/17 09:43:14;;;;;;;4.07;1.10;;;14.10;66.40;;;;;;4994882;28;20037;-86
2022/04/17 09:46:05;;;;;;;3.28;1.25;;;14.20;66.20;;;;;;4995241;28;20033;-85
2022/04/17 09:48:32;;;;;;;4.25;1.27;;;14.30;67.20;;;;;;4995218;28;20026;-86
2022/04/17 09:50:59;;;;;;;3.22;0.90;;;14.30;66.10;;;;;;4999017;28;20056;-86
2022/04/17 09:53:37;;;;;;;1.80;0.70;;;14.40;66.10;;;;;;4995674;28;20022;-86
2022/04/17 09:56:10;;;;;;;3.92;1.00;;;14.60;65.70;;;;;;4995198;28;20478;-86
2022/04/17 09:58:50;;;;;;;2.28;0.85;;;14.60;65.00;;;;;;5018002;28;20051;-86
2022/04/17 10:01:16;;;;;;;3.00;0.80;;;14.70;64.30;;;;;;4997884;28;20060;-86
2022/04/17 10:03:42;;;;;;;1.95;0.60;;;14.60;63.30;;;;;;4993677;28;20026;-86
2022/04/17 10:06:11;;;;;;;2.72;0.90;;;14.70;62.80;;;;;;5017325;28;20060;-85
2022/04/17 10:08:39;;;;;;;3.25;0.90;;;14.70;62.20;;;;;;4994065;28;20040;-87
2022/04/17 10:11:06;;;;;;;3.08;1.25;;;14.80;62.30;;;;;;4995905;28;20492;-87
2022/04/17 10:13:33;;;;;;;2.70;0.90;;;14.90;62.60;;;;;;5024106;28;20018;-86
2022/04/17 10:16:00;;;;;;;3.83;0.90;;;14.90;62.50;;;;;;5003294;28;20046;-87
2022/04/17 10:18:32;;;;;;;1.60;0.73;;;15.00;62.60;;;;;;5012729;28;20108;-87
2022/04/17 10:20:58;;;;;;;3.60;0.80;;;15.10;62.60;;;;;;5008884;28;20033;-86
2022/04/17 10:23:26;;;;;;;2.13;0.80;;;15.20;62.50;;;;;;5012171;28;20021;-87
2022/04/17 10:25:57;;;;;;;2.22;0.80;;;15.30;62.70;;;;;;5001411;28;20025;-86
2022/04/17 10:28:27;;;;;;;3.35;0.70;;;15.40;61.30;;;;;;5021414;28;20040;-86
2022/04/17 10:31:13;;;;;;;3.10;0.95;;;15.40;61.10;;;;;;5006338;28;20033;-86
2022/04/17 10:33:49;;;;;;;3.65;0.90;;;15.40;59.80;;;;;;5011012;28;21910;-85
2022/04/17 10:37:03;;;;;;;3.15;0.90;;;15.40;59.10;;;;;;5007277;28;20022;-87
2022/04/17 10:39:42;;;;;;;1.98;0.90;;;15.30;59.00;;;;;;4908434;29;20228;-86
2022/04/17 10:42:08;;;;;;;2.03;0.73;;;15.30;59.40;;;;;;4927381;29;21436;-87
2022/04/17 10:44:38;;;;;;;3.17;0.95;;;15.40;59.70;;;;;;4975836;28;20033;-86
2022/04/17 10:47:05;;;;;;;2.75;0.82;;;15.40;60.20;;;;;;5010913;28;20041;-86
2022/04/17 10:49:32;;;;;;;2.55;0.80;;;15.50;58.90;;;;;;5013921;28;20045;-86
2022/04/17 10:51:59;;;;;;;1.90;0.73;;;15.60;59.60;;;;;;5011655;28;20030;-86
2022/04/17 10:54:45;;;;;;;4.75;0.88;;;15.60;58.80;;;;;;5011054;28;20026;-86
2022/04/17 10:57:11;;;;;;;4.10;0.95;;;15.70;58.90;;;;;;5008368;28;20538;-86
2022/04/17 10:59:37;;;;;;;2.55;1.10;;;15.80;58.60;;;;;;5014015;28;20148;-87
2022/04/17 11:02:08;;;;;;;2.97;0.90;;;15.90;59.00;;;;;;5014106;28;20025;-86
2022/04/17 11:04:39;;;;;;;2.67;0.77;;;16.00;59.00;;;;;;5012966;28;20064;-86
2022/04/17 11:07:09;;;;;;;4.07;1.08;;;16.10;58.30;;;;;;5012270;28;20398;-86
2022/04/17 11:09:42;;;;;;;2.40;0.75;;;16.20;57.50;;;;;;5007418;28;20033;-86
2022/04/17 11:12:10;;;;;;;2.22;0.70;;;16.30;57.20;;;;;;5014725;28;20029;-86
2022/04/17 11:14:36;;;;;;;2.72;0.80;;;16.30;57.40;;;;;;5014695;28;20120;-86
2022/04/17 11:17:09;;;;;;;2.15;0.70;;;16.40;56.90;;;;;;5015548;28;20037;-86
2022/04/17 11:19:36;;;;;;;4.20;1.42;;;16.50;56.80;;;;;;5011563;28;20057;-87
2022/04/17 11:22:04;;;;;;;2.40;0.70;;;16.60;54.90;;;;;;5010435;28;20550;-87
2022/04/17 11:24:55;;;;;;;2.70;0.63;;;16.60;55.10;;;;;;5012274;28;20037;-87
2022/04/17 11:27:45;;;;;;;3.05;0.63;;;16.80;55.50;;;;;;5016111;28;20025;-86
2022/04/17 11:30:13;;;;;;;1.50;0.70;;;16.90;54.10;;;;;;5014235;28;20124;-86
2022/04/17 11:32:46;;;;;;;2.80;0.65;;;16.90;53.60;;;;;;5010330;28;20065;-86
2022/04/17 11:35:19;;;;;;;1.63;0.77;;;17.00;52.70;;;;;;5014855;28;20026;-87
2022/04/17 11:38:01;;;;;;;2.72;0.60;;;16.90;53.10;;;;;;5010450;28;20025;-87
2022/04/17 11:40:28;;;;;;;2.05;0.90;;;16.90;51.40;;;;;;5012028;28;20038;-87
2022/04/17 11:42:55;;;;;;;1.88;0.70;;;16.90;51.60;;;;;;5009924;28;20117;-87
2022/04/17 11:45:23;;;;;;;2.72;0.90;;;17.00;51.00;;;;;;5014321;28;20029;-87
2022/04/17 11:47:49;;;;;;;2.00;0.80;;;17.00;50.10;;;;;;5016297;28;20477;-86
2022/04/17 11:50:21;;;;;;;2.85;1.00;;;17.00;51.40;;;;;;5018839;28;20056;-87
2022/04/17 11:52:50;;;;;;;2.70;0.80;;;17.10;51.30;;;;;;5014363;28;20029;-87
2022/04/17 11:55:16;;;;;;;1.73;0.75;;;17.20;50.90;;;;;;5025468;28;20068;-87
2022/04/17 11:57:41;;;;;;;3.28;0.70;;;17.20;49.40;;;;;;5024201;28;20026;-87
2022/04/17 12:00:08;;;;;;;2.65;0.95;;;17.20;49.70;;;;;;5011103;28;20076;-85
2022/04/17 12:02:33;;;;;;;2.30;1.02;;;17.20;50.10;;;;;;5016273;28;20495;-86
2022/04/17 12:05:06;;;;;;;2.55;1.02;;;17.30;51.50;;;;;;5004306;28;20058;-88
2022/04/17 12:07:32;;;;;;;1.90;1.00;;;17.40;52.40;;;;;;5003886;28;20072;-85
2022/04/17 12:10:12;;;;;;;2.28;1.02;;;17.60;51.80;;;;;;5013809;28;20033;-86
2022/04/17 12:12:40;;;;;;;2.20;0.85;;;17.70;51.80;;;;;;5031749;28;20390;-85
2022/04/17 12:15:08;;;;;;;2.53;1.15;;;17.70;51.60;;;;;;5011361;28;20026;-85
2022/04/17 12:17:34;;;;;;;2.80;0.82;;;17.80;51.70;;;;;;5004240;28;20066;-85
2022/04/17 12:20:04;;;;;;;3.00;0.88;;;17.90;51.30;;;;;;5015145;28;20448;-85
2022/04/17 12:22:30;;;;;;;1.60;0.73;;;18.00;50.90;;;;;;5008335;28;20462;-85
2022/04/17 12:24:56;;;;;;;2.15;0.75;;;18.00;50.60;;;;;;5008639;28;20083;-85
2022/04/17 12:27:21;;;;;;;1.40;0.60;;;18.10;50.40;;;;;;4999550;28;20029;-84
2022/04/17 12:29:52;;;;;;;2.50;0.75;;;18.20;49.90;;;;;;5000894;28;20030;-84
2022/04/17 12:32:21;;;;;;;3.78;0.90;;;18.30;50.00;;;;;;5013058;28;20029;-85
2022/04/17 12:34:56;;;;;;;1.92;0.90;;;18.30;48.80;;;;;;5010410;28;20021;-85
2022/04/17 12:37:28;;;;;;;2.80;0.80;;;18.20;48.80;;;;;;5007718;28;20482;-85
2022/04/17 12:40:08;;;;;;;1.95;0.88;;;18.20;48.50;;;;;;5013658;28;20040;-85
2022/04/17 12:42:33;;;;;;;3.75;0.88;;;18.30;48.70;;;;;;4999773;28;20022;-86
2022/04/17 12:44:59;;;;;;;2.35;0.93;;;18.30;49.00;;;;;;5001788;28;20092;-87
2022/04/17 12:47:25;;;;;;;1.85;0.60;;;18.40;48.50;;;;;;5016579;28;20017;-86
2022/04/17 12:49:57;;;;;;;3.00;0.60;;;18.50;48.40;;;;;;5013936;28;20025;-87
2022/04/17 12:52:23;;;;;;;2.13;0.82;;;18.60;48.60;;;;;;4998641;28;20075;-87
2022/04/17 12:54:49;;;;;;;2.28;0.70;;;18.70;48.70;;;;;;5022482;28;20546;-87
2022/04/17 12:57:20;;;;;;;2.00;0.80;;;18.80;48.50;;;;;;5015609;28;20036;-88
2022/04/17 12:59:50;;;;;;;1.97;0.60;;;18.90;48.20;;;;;;4996881;28;20038;-88
2022/04/17 13:02:18;;;;;;;1.88;0.85;;;18.80;47.60;;;;;;5014672;28;20474;-88